sensor_id;sensor_type;location;lat;lon;timestamp;P1;durP1;ratioP1;P2;durP2;ratioP2
50350;SDS011;36250;48.740;22.174;2023-03-29T00:00:59;3.53;;;2.58;;
50350;SDS011;36250;48.740;22.174;2023-03-29T00:03:25;5.28;;;3.00;;
50350;SDS011;36250;48.740;22.174;2023-03-29T00:05:51;6.75;;;3.97;;
50350;SDS011;36250;48.740;22.174;2023-03-29T00:08:22;6.28;;;2.75;;
50350;SDS011;36250;48.740;22.174;2023-03-29T00:10:47;4.95;;;2.75;;
50350;SDS011;36250;48.740;22.174;2023-03-29T00:13:13;5.13;;;2.90;;
50350;SDS011;36250;48.740;22.174;2023-03-29T00:15:40;5.07;;;3.13;;
50350;SDS011;36250;48.740;22.174;2023-03-29T00:18:05;4.85;;;3.05;;
50350;SDS011;36250;48.740;22.174;2023-03-29T00:20:31;6.57;;;3.10;;
50350;SDS011;36250;48.740;22.174;2023-03-29T00:22:56;4.88;;;3.42;;
50350;SDS011;36250;48.740;22.174;2023-03-29T00:25:22;5.53;;;3.28;;
50350;SDS011;36250;48.740;22.174;2023-03-29T00:27:47;3.83;;;3.47;;
50350;SDS011;36250;48.740;22.174;2023-03-29T00:30:13;4.20;;;3.20;;
50350;SDS011;36250;48.740;22.174;2023-03-29T00:32:39;5.30;;;3.58;;
50350;SDS011;36250;48.740;22.174;2023-03-29T00:35:04;7.13;;;3.83;;
50350;SDS011;36250;48.740;22.174;2023-03-29T00:37:31;4.35;;;3.47;;
50350;SDS011;36250;48.740;22.174;2023-03-29T00:39:57;4.25;;;2.88;;
50350;SDS011;36250;48.740;22.174;2023-03-29T00:42:23;5.30;;;3.15;;
50350;SDS011;36250;48.740;22.174;2023-03-29T00:47:20;5.32;;;3.25;;
50350;SDS011;36250;48.740;22.174;2023-03-29T00:49:55;7.57;;;3.65;;
50350;SDS011;36250;48.740;22.174;2023-03-29T00:52:25;4.75;;;3.38;;
50350;SDS011;36250;48.740;22.174;2023-03-29T00:54:54;8.00;;;3.40;;
50350;SDS011;36250;48.740;22.174;2023-03-29T00:57:22;7.65;;;3.53;;
50350;SDS011;36250;48.740;22.174;2023-03-29T00:59:48;9.50;;;4.00;;
50350;SDS011;36250;48.740;22.174;2023-03-29T01:02:16;3.60;;;3.00;;
50350;SDS011;36250;48.740;22.174;2023-03-29T01:05:09;5.55;;;3.70;;
50350;SDS011;36250;48.740;22.174;2023-03-29T01:07:40;12.88;;;3.65;;
50350;SDS011;36250;48.740;22.174;2023-03-29T01:10:13;7.10;;;4.10;;
50350;SDS011;36250;48.740;22.174;2023-03-29T01:12:47;5.32;;;3.63;;
50350;SDS011;36250;48.740;22.174;2023-03-29T01:15:18;8.82;;;3.83;;
50350;SDS011;36250;48.740;22.174;2023-03-29T01:17:47;5.72;;;3.50;;
50350;SDS011;36250;48.740;22.174;2023-03-29T01:20:51;10.60;;;4.25;;
50350;SDS011;36250;48.740;22.174;2023-03-29T01:23:22;9.10;;;4.43;;
50350;SDS011;36250;48.740;22.174;2023-03-29T01:31:23;8.13;;;4.25;;
50350;SDS011;36250;48.740;22.174;2023-03-29T01:33:54;5.32;;;4.13;;
50350;SDS011;36250;48.740;22.174;2023-03-29T01:36:45;5.53;;;4.05;;
50350;SDS011;36250;48.740;22.174;2023-03-29T01:39:15;5.93;;;3.97;;
50350;SDS011;36250;48.740;22.174;2023-03-29T01:41:58;7.50;;;4.03;;
50350;SDS011;36250;48.740;22.174;2023-03-29T01:44:37;4.97;;;3.40;;
50350;SDS011;36250;48.740;22.174;2023-03-29T01:47:11;6.53;;;2.97;;
50350;SDS011;36250;48.740;22.174;2023-03-29T01:50:17;8.73;;;4.30;;
50350;SDS011;36250;48.740;22.174;2023-03-29T01:53:03;7.80;;;4.05;;
50350;SDS011;36250;48.740;22.174;2023-03-29T01:55:37;7.53;;;4.07;;
50350;SDS011;36250;48.740;22.174;2023-03-29T01:58:07;11.88;;;3.92;;
50350;SDS011;36250;48.740;22.174;2023-03-29T02:00:35;9.05;;;4.40;;
50350;SDS011;36250;48.740;22.174;2023-03-29T02:03:05;10.88;;;3.90;;
50350;SDS011;36250;48.740;22.174;2023-03-29T02:05:33;7.72;;;4.13;;
50350;SDS011;36250;48.740;22.174;2023-03-29T02:08:00;5.20;;;4.05;;
50350;SDS011;36250;48.740;22.174;2023-03-29T02:10:29;7.45;;;4.60;;
50350;SDS011;36250;48.740;22.174;2023-03-29T02:12:56;11.05;;;4.25;;
50350;SDS011;36250;48.740;22.174;2023-03-29T02:15:22;10.45;;;4.65;;
50350;SDS011;36250;48.740;22.174;2023-03-29T02:17:48;5.53;;;3.92;;
50350;SDS011;36250;48.740;22.174;2023-03-29T02:20:19;8.23;;;4.22;;
50350;SDS011;36250;48.740;22.174;2023-03-29T02:25:27;8.23;;;4.22;;
50350;SDS011;36250;48.740;22.174;2023-03-29T02:27:53;5.85;;;4.15;;
50350;SDS011;36250;48.740;22.174;2023-03-29T02:30:20;7.43;;;4.10;;
50350;SDS011;36250;48.740;22.174;2023-03-29T02:32:48;6.88;;;3.88;;
50350;SDS011;36250;48.740;22.174;2023-03-29T02:35:23;8.80;;;4.15;;
50350;SDS011;36250;48.740;22.174;2023-03-29T02:37:58;7.28;;;3.65;;
50350;SDS011;36250;48.740;22.174;2023-03-29T02:40:28;7.47;;;4.13;;
50350;SDS011;36250;48.740;22.174;2023-03-29T02:42:54;4.07;;;3.28;;
50350;SDS011;36250;48.740;22.174;2023-03-29T02:45:21;6.90;;;4.05;;
50350;SDS011;36250;48.740;22.174;2023-03-29T02:47:50;5.63;;;3.90;;
50350;SDS011;36250;48.740;22.174;2023-03-29T02:50:19;8.77;;;4.75;;
50350;SDS011;36250;48.740;22.174;2023-03-29T02:52:50;6.47;;;4.32;;
50350;SDS011;36250;48.740;22.174;2023-03-29T02:55:20;6.93;;;3.70;;
50350;SDS011;36250;48.740;22.174;2023-03-29T02:57:48;7.22;;;4.13;;
50350;SDS011;36250;48.740;22.174;2023-03-29T03:00:14;6.85;;;4.18;;
50350;SDS011;36250;48.740;22.174;2023-03-29T03:02:44;8.80;;;3.28;;
50350;SDS011;36250;48.740;22.174;2023-03-29T03:05:10;11.48;;;4.68;;
50350;SDS011;36250;48.740;22.174;2023-03-29T03:07:36;5.05;;;3.53;;
50350;SDS011;36250;48.740;22.174;2023-03-29T03:10:01;7.78;;;3.67;;
50350;SDS011;36250;48.740;22.174;2023-03-29T03:12:28;8.02;;;3.05;;
50350;SDS011;36250;48.740;22.174;2023-03-29T03:14:53;7.20;;;3.00;;
50350;SDS011;36250;48.740;22.174;2023-03-29T03:17:18;8.25;;;3.90;;
50350;SDS011;36250;48.740;22.174;2023-03-29T03:19:44;6.25;;;3.22;;
50350;SDS011;36250;48.740;22.174;2023-03-29T03:22:09;4.93;;;3.13;;
50350;SDS011;36250;48.740;22.174;2023-03-29T03:24:35;7.22;;;4.47;;
50350;SDS011;36250;48.740;22.174;2023-03-29T03:27:00;10.38;;;5.93;;
50350;SDS011;36250;48.740;22.174;2023-03-29T03:29:26;8.05;;;4.43;;
50350;SDS011;36250;48.740;22.174;2023-03-29T03:31:52;12.57;;;4.25;;
50350;SDS011;36250;48.740;22.174;2023-03-29T03:34:18;6.03;;;3.42;;
50350;SDS011;36250;48.740;22.174;2023-03-29T03:36:44;5.18;;;3.90;;
50350;SDS011;36250;48.740;22.174;2023-03-29T03:39:11;8.25;;;3.72;;
50350;SDS011;36250;48.740;22.174;2023-03-29T03:41:37;6.30;;;3.92;;
50350;SDS011;36250;48.740;22.174;2023-03-29T03:44:03;3.38;;;2.90;;
50350;SDS011;36250;48.740;22.174;2023-03-29T03:46:28;5.07;;;3.15;;
50350;SDS011;36250;48.740;22.174;2023-03-29T03:48:54;7.28;;;3.35;;
50350;SDS011;36250;48.740;22.174;2023-03-29T03:51:19;4.43;;;3.20;;
50350;SDS011;36250;48.740;22.174;2023-03-29T03:53:45;4.25;;;3.40;;
50350;SDS011;36250;48.740;22.174;2023-03-29T03:56:10;5.75;;;3.25;;
50350;SDS011;36250;48.740;22.174;2023-03-29T03:58:37;7.15;;;3.88;;
50350;SDS011;36250;48.740;22.174;2023-03-29T04:01:03;5.13;;;3.35;;
50350;SDS011;36250;48.740;22.174;2023-03-29T04:03:29;6.50;;;3.50;;
50350;SDS011;36250;48.740;22.174;2023-03-29T04:05:58;9.00;;;3.40;;
50350;SDS011;36250;48.740;22.174;2023-03-29T04:08:24;7.07;;;3.90;;
50350;SDS011;36250;48.740;22.174;2023-03-29T04:10:50;5.97;;;3.97;;
50350;SDS011;36250;48.740;22.174;2023-03-29T04:13:17;5.35;;;3.30;;
50350;SDS011;36250;48.740;22.174;2023-03-29T04:15:42;4.93;;;3.47;;
50350;SDS011;36250;48.740;22.174;2023-03-29T04:18:10;5.10;;;3.03;;
50350;SDS011;36250;48.740;22.174;2023-03-29T04:20:36;5.72;;;3.50;;
50350;SDS011;36250;48.740;22.174;2023-03-29T04:23:02;4.97;;;3.45;;
50350;SDS011;36250;48.740;22.174;2023-03-29T04:25:27;5.85;;;3.30;;
50350;SDS011;36250;48.740;22.174;2023-03-29T04:27:53;5.28;;;2.92;;
50350;SDS011;36250;48.740;22.174;2023-03-29T04:30:19;3.97;;;2.50;;
50350;SDS011;36250;48.740;22.174;2023-03-29T04:32:44;5.45;;;2.53;;
50350;SDS011;36250;48.740;22.174;2023-03-29T04:35:10;7.60;;;2.47;;
50350;SDS011;36250;48.740;22.174;2023-03-29T04:37:35;3.38;;;1.98;;
50350;SDS011;36250;48.740;22.174;2023-03-29T04:40:04;4.85;;;2.53;;
50350;SDS011;36250;48.740;22.174;2023-03-29T04:42:34;4.20;;;2.30;;
50350;SDS011;36250;48.740;22.174;2023-03-29T04:45:00;2.85;;;2.05;;
50350;SDS011;36250;48.740;22.174;2023-03-29T04:47:25;3.42;;;2.33;;
50350;SDS011;36250;48.740;22.174;2023-03-29T04:49:53;4.22;;;2.33;;
50350;SDS011;36250;48.740;22.174;2023-03-29T04:52:20;3.88;;;2.67;;
50350;SDS011;36250;48.740;22.174;2023-03-29T04:54:46;6.20;;;2.40;;
50350;SDS011;36250;48.740;22.174;2023-03-29T04:57:11;6.18;;;2.28;;
50350;SDS011;36250;48.740;22.174;2023-03-29T04:59:37;4.82;;;2.13;;
50350;SDS011;36250;48.740;22.174;2023-03-29T05:02:02;7.68;;;2.25;;
50350;SDS011;36250;48.740;22.174;2023-03-29T05:04:28;5.40;;;2.60;;
50350;SDS011;36250;48.740;22.174;2023-03-29T05:06:54;4.47;;;2.63;;
50350;SDS011;36250;48.740;22.174;2023-03-29T05:09:21;4.32;;;2.10;;
50350;SDS011;36250;48.740;22.174;2023-03-29T05:11:47;3.30;;;2.25;;
50350;SDS011;36250;48.740;22.174;2023-03-29T05:14:13;5.80;;;2.67;;
50350;SDS011;36250;48.740;22.174;2023-03-29T05:16:39;6.75;;;2.42;;
50350;SDS011;36250;48.740;22.174;2023-03-29T05:19:05;4.15;;;2.38;;
50350;SDS011;36250;48.740;22.174;2023-03-29T05:21:30;4.70;;;2.40;;
50350;SDS011;36250;48.740;22.174;2023-03-29T05:23:57;7.68;;;2.20;;
50350;SDS011;36250;48.740;22.174;2023-03-29T05:26:22;4.25;;;2.20;;
50350;SDS011;36250;48.740;22.174;2023-03-29T05:28:48;8.93;;;2.22;;
50350;SDS011;36250;48.740;22.174;2023-03-29T05:31:14;5.60;;;2.85;;
50350;SDS011;36250;48.740;22.174;2023-03-29T05:33:40;8.07;;;2.90;;
50350;SDS011;36250;48.740;22.174;2023-03-29T05:36:07;3.22;;;2.10;;
50350;SDS011;36250;48.740;22.174;2023-03-29T05:38:34;5.63;;;2.25;;
50350;SDS011;36250;48.740;22.174;2023-03-29T05:41:00;2.55;;;1.92;;
50350;SDS011;36250;48.740;22.174;2023-03-29T05:43:26;4.70;;;2.15;;
50350;SDS011;36250;48.740;22.174;2023-03-29T05:45:52;2.58;;;1.70;;
50350;SDS011;36250;48.740;22.174;2023-03-29T05:48:18;5.90;;;2.78;;
50350;SDS011;36250;48.740;22.174;2023-03-29T05:50:46;6.00;;;2.10;;
50350;SDS011;36250;48.740;22.174;2023-03-29T05:53:13;3.30;;;1.98;;
50350;SDS011;36250;48.740;22.174;2023-03-29T05:55:39;4.40;;;1.80;;
50350;SDS011;36250;48.740;22.174;2023-03-29T05:58:05;3.67;;;2.10;;
50350;SDS011;36250;48.740;22.174;2023-03-29T06:00:30;4.75;;;2.15;;
50350;SDS011;36250;48.740;22.174;2023-03-29T06:02:56;5.07;;;2.15;;
50350;SDS011;36250;48.740;22.174;2023-03-29T06:05:21;4.65;;;2.38;;
50350;SDS011;36250;48.740;22.174;2023-03-29T06:07:46;4.00;;;1.83;;
50350;SDS011;36250;48.740;22.174;2023-03-29T06:10:16;3.03;;;2.50;;
50350;SDS011;36250;48.740;22.174;2023-03-29T06:12:41;2.53;;;2.03;;
50350;SDS011;36250;48.740;22.174;2023-03-29T06:15:07;5.88;;;2.60;;
50350;SDS011;36250;48.740;22.174;2023-03-29T06:17:34;7.07;;;1.95;;
50350;SDS011;36250;48.740;22.174;2023-03-29T06:19:59;6.53;;;2.67;;
50350;SDS011;36250;48.740;22.174;2023-03-29T06:22:25;4.60;;;2.17;;
50350;SDS011;36250;48.740;22.174;2023-03-29T06:24:52;4.82;;;1.75;;
50350;SDS011;36250;48.740;22.174;2023-03-29T06:27:17;3.85;;;1.50;;
50350;SDS011;36250;48.740;22.174;2023-03-29T06:29:43;2.95;;;1.63;;
50350;SDS011;36250;48.740;22.174;2023-03-29T06:32:09;3.67;;;1.83;;
50350;SDS011;36250;48.740;22.174;2023-03-29T06:34:35;4.35;;;1.95;;
50350;SDS011;36250;48.740;22.174;2023-03-29T06:37:00;2.88;;;1.88;;
50350;SDS011;36250;48.740;22.174;2023-03-29T06:39:26;5.28;;;2.13;;
50350;SDS011;36250;48.740;22.174;2023-03-29T06:41:51;5.80;;;2.88;;
50350;SDS011;36250;48.740;22.174;2023-03-29T06:44:16;2.30;;;1.40;;
50350;SDS011;36250;48.740;22.174;2023-03-29T06:46:42;2.60;;;1.27;;
50350;SDS011;36250;48.740;22.174;2023-03-29T06:49:07;2.88;;;1.40;;
50350;SDS011;36250;48.740;22.174;2023-03-29T06:51:33;2.88;;;1.48;;
50350;SDS011;36250;48.740;22.174;2023-03-29T06:53:59;3.05;;;1.65;;
50350;SDS011;36250;48.740;22.174;2023-03-29T06:56:24;3.22;;;1.65;;
50350;SDS011;36250;48.740;22.174;2023-03-29T06:58:50;2.35;;;1.27;;
50350;SDS011;36250;48.740;22.174;2023-03-29T07:01:15;4.95;;;1.52;;
50350;SDS011;36250;48.740;22.174;2023-03-29T07:03:41;1.70;;;0.98;;
50350;SDS011;36250;48.740;22.174;2023-03-29T07:06:07;2.30;;;1.05;;
50350;SDS011;36250;48.740;22.174;2023-03-29T07:08:36;3.53;;;1.55;;
50350;SDS011;36250;48.740;22.174;2023-03-29T07:11:11;2.58;;;1.70;;
50350;SDS011;36250;48.740;22.174;2023-03-29T07:13:38;3.88;;;1.80;;
50350;SDS011;36250;48.740;22.174;2023-03-29T07:16:06;5.28;;;2.05;;
50350;SDS011;36250;48.740;22.174;2023-03-29T07:18:39;5.28;;;1.50;;
50350;SDS011;36250;48.740;22.174;2023-03-29T07:21:08;3.40;;;1.50;;
50350;SDS011;36250;48.740;22.174;2023-03-29T07:23:35;2.63;;;1.40;;
50350;SDS011;36250;48.740;22.174;2023-03-29T07:26:01;2.20;;;1.08;;
50350;SDS011;36250;48.740;22.174;2023-03-29T07:28:27;4.05;;;1.55;;
50350;SDS011;36250;48.740;22.174;2023-03-29T07:30:59;4.85;;;1.95;;
50350;SDS011;36250;48.740;22.174;2023-03-29T07:33:26;2.50;;;1.67;;
50350;SDS011;36250;48.740;22.174;2023-03-29T07:35:51;9.40;;;4.93;;
50350;SDS011;36250;48.740;22.174;2023-03-29T07:38:16;6.03;;;1.63;;
50350;SDS011;36250;48.740;22.174;2023-03-29T07:40:42;1.95;;;1.58;;
50350;SDS011;36250;48.740;22.174;2023-03-29T07:43:07;2.17;;;1.42;;
50350;SDS011;36250;48.740;22.174;2023-03-29T07:45:34;2.08;;;0.82;;
50350;SDS011;36250;48.740;22.174;2023-03-29T07:48:01;4.10;;;1.60;;
50350;SDS011;36250;48.740;22.174;2023-03-29T07:50:26;4.43;;;1.55;;
50350;SDS011;36250;48.740;22.174;2023-03-29T07:52:52;2.90;;;1.20;;
50350;SDS011;36250;48.740;22.174;2023-03-29T07:55:18;2.63;;;1.80;;
50350;SDS011;36250;48.740;22.174;2023-03-29T07:57:44;2.13;;;1.05;;
50350;SDS011;36250;48.740;22.174;2023-03-29T08:00:10;1.20;;;1.10;;
50350;SDS011;36250;48.740;22.174;2023-03-29T08:02:43;2.42;;;1.20;;
50350;SDS011;36250;48.740;22.174;2023-03-29T08:05:13;1.75;;;1.25;;
50350;SDS011;36250;48.740;22.174;2023-03-29T08:07:43;1.58;;;1.30;;
50350;SDS011;36250;48.740;22.174;2023-03-29T08:10:15;2.63;;;1.45;;
50350;SDS011;36250;48.740;22.174;2023-03-29T08:12:45;3.38;;;1.58;;
50350;SDS011;36250;48.740;22.174;2023-03-29T08:15:12;5.13;;;2.60;;
50350;SDS011;36250;48.740;22.174;2023-03-29T08:17:38;1.60;;;1.20;;
50350;SDS011;36250;48.740;22.174;2023-03-29T08:20:06;2.65;;;1.05;;
50350;SDS011;36250;48.740;22.174;2023-03-29T08:22:35;1.52;;;1.10;;
50350;SDS011;36250;48.740;22.174;2023-03-29T08:25:01;6.05;;;1.77;;
50350;SDS011;36250;48.740;22.174;2023-03-29T08:27:28;5.10;;;1.52;;
50350;SDS011;36250;48.740;22.174;2023-03-29T08:29:54;4.80;;;2.20;;
50350;SDS011;36250;48.740;22.174;2023-03-29T08:32:19;2.67;;;1.70;;
50350;SDS011;36250;48.740;22.174;2023-03-29T08:34:45;2.97;;;1.40;;
50350;SDS011;36250;48.740;22.174;2023-03-29T08:37:11;2.80;;;1.55;;
50350;SDS011;36250;48.740;22.174;2023-03-29T08:39:37;2.72;;;1.33;;
50350;SDS011;36250;48.740;22.174;2023-03-29T08:42:09;3.22;;;1.67;;
50350;SDS011;36250;48.740;22.174;2023-03-29T08:45:12;5.40;;;1.90;;
50350;SDS011;36250;48.740;22.174;2023-03-29T08:47:52;3.97;;;1.75;;
50350;SDS011;36250;48.740;22.174;2023-03-29T08:50:29;4.40;;;2.53;;
50350;SDS011;36250;48.740;22.174;2023-03-29T08:53:11;3.33;;;2.00;;
50350;SDS011;36250;48.740;22.174;2023-03-29T08:55:44;4.40;;;1.67;;
50350;SDS011;36250;48.740;22.174;2023-03-29T08:58:12;2.75;;;1.50;;
50350;SDS011;36250;48.740;22.174;2023-03-29T09:00:43;2.20;;;1.42;;
50350;SDS011;36250;48.740;22.174;2023-03-29T09:03:18;1.73;;;1.15;;
50350;SDS011;36250;48.740;22.174;2023-03-29T09:05:47;3.53;;;1.33;;
50350;SDS011;36250;48.740;22.174;2023-03-29T09:08:15;4.53;;;2.05;;
50350;SDS011;36250;48.740;22.174;2023-03-29T09:10:44;5.57;;;1.35;;
50350;SDS011;36250;48.740;22.174;2023-03-29T09:13:22;2.80;;;1.33;;
50350;SDS011;36250;48.740;22.174;2023-03-29T09:19:01;2.15;;;1.42;;
50350;SDS011;36250;48.740;22.174;2023-03-29T09:21:45;3.47;;;2.92;;
50350;SDS011;36250;48.740;22.174;2023-03-29T09:27:26;4.95;;;3.78;;
50350;SDS011;36250;48.740;22.174;2023-03-29T09:38:43;12.30;;;6.13;;
50350;SDS011;36250;48.740;22.174;2023-03-29T09:43:55;1.88;;;1.10;;
50350;SDS011;36250;48.740;22.174;2023-03-29T09:46:25;4.90;;;1.40;;
50350;SDS011;36250;48.740;22.174;2023-03-29T09:48:57;5.25;;;2.30;;
50350;SDS011;36250;48.740;22.174;2023-03-29T09:51:23;2.80;;;1.60;;
50350;SDS011;36250;48.740;22.174;2023-03-29T09:53:56;2.85;;;1.52;;
50350;SDS011;36250;48.740;22.174;2023-03-29T09:56:21;4.10;;;1.88;;
50350;SDS011;36250;48.740;22.174;2023-03-29T09:58:47;3.72;;;1.13;;
50350;SDS011;36250;48.740;22.174;2023-03-29T10:01:13;13.70;;;6.40;;
50350;SDS011;36250;48.740;22.174;2023-03-29T10:03:41;6.10;;;3.60;;
50350;SDS011;36250;48.740;22.174;2023-03-29T10:06:11;3.13;;;0.90;;
50350;SDS011;36250;48.740;22.174;2023-03-29T10:08:39;7.90;;;1.30;;
50350;SDS011;36250;48.740;22.174;2023-03-29T10:11:11;2.15;;;1.10;;
50350;SDS011;36250;48.740;22.174;2023-03-29T10:13:48;2.20;;;1.10;;
50350;SDS011;36250;48.740;22.174;2023-03-29T10:16:22;2.33;;;1.23;;
50350;SDS011;36250;48.740;22.174;2023-03-29T10:18:49;1.45;;;1.08;;
50350;SDS011;36250;48.740;22.174;2023-03-29T10:21:16;2.15;;;1.55;;
50350;SDS011;36250;48.740;22.174;2023-03-29T10:23:46;3.08;;;1.88;;
50350;SDS011;36250;48.740;22.174;2023-03-29T10:28:44;4.68;;;3.33;;
50350;SDS011;36250;48.740;22.174;2023-03-29T10:31:14;3.60;;;2.38;;
50350;SDS011;36250;48.740;22.174;2023-03-29T10:33:42;2.28;;;1.80;;
50350;SDS011;36250;48.740;22.174;2023-03-29T10:36:08;1.77;;;1.40;;
50350;SDS011;36250;48.740;22.174;2023-03-29T10:38:37;6.93;;;3.17;;
50350;SDS011;36250;48.740;22.174;2023-03-29T10:41:03;2.80;;;2.28;;
50350;SDS011;36250;48.740;22.174;2023-03-29T10:43:34;3.60;;;2.65;;
50350;SDS011;36250;48.740;22.174;2023-03-29T10:46:10;3.15;;;1.58;;
50350;SDS011;36250;48.740;22.174;2023-03-29T10:48:50;2.35;;;1.05;;
50350;SDS011;36250;48.740;22.174;2023-03-29T10:51:19;7.20;;;3.63;;
50350;SDS011;36250;48.740;22.174;2023-03-29T10:53:45;20.55;;;9.93;;
50350;SDS011;36250;48.740;22.174;2023-03-29T11:16:18;2.35;;;1.77;;
50350;SDS011;36250;48.740;22.174;2023-03-29T11:43:42;4.15;;;2.50;;
50350;SDS011;36250;48.740;22.174;2023-03-29T11:46:11;3.72;;;2.38;;
50350;SDS011;36250;48.740;22.174;2023-03-29T11:48:51;3.28;;;2.40;;
50350;SDS011;36250;48.740;22.174;2023-03-29T11:51:24;4.43;;;4.03;;
50350;SDS011;36250;48.740;22.174;2023-03-29T11:56:47;9.95;;;5.85;;
50350;SDS011;36250;48.740;22.174;2023-03-29T12:01:58;9.15;;;5.35;;
50350;SDS011;36250;48.740;22.174;2023-03-29T12:04:30;3.50;;;2.78;;
50350;SDS011;36250;48.740;22.174;2023-03-29T12:07:10;1.27;;;0.98;;
50350;SDS011;36250;48.740;22.174;2023-03-29T12:09:43;1.40;;;0.90;;
50350;SDS011;36250;48.740;22.174;2023-03-29T12:12:16;3.35;;;2.03;;
50350;SDS011;36250;48.740;22.174;2023-03-29T12:17:20;3.08;;;1.95;;
50350;SDS011;36250;48.740;22.174;2023-03-29T12:20:00;3.30;;;1.98;;
50350;SDS011;36250;48.740;22.174;2023-03-29T12:22:29;2.70;;;1.58;;
50350;SDS011;36250;48.740;22.174;2023-03-29T12:24:55;6.07;;;2.63;;
50350;SDS011;36250;48.740;22.174;2023-03-29T12:27:23;5.38;;;2.63;;
50350;SDS011;36250;48.740;22.174;2023-03-29T12:38:32;11.00;;;4.85;;
50350;SDS011;36250;48.740;22.174;2023-03-29T12:40:59;6.20;;;3.05;;
50350;SDS011;36250;48.740;22.174;2023-03-29T12:43:40;4.53;;;2.53;;
50350;SDS011;36250;48.740;22.174;2023-03-29T12:46:14;2.63;;;1.50;;
50350;SDS011;36250;48.740;22.174;2023-03-29T12:48:43;5.22;;;2.33;;
50350;SDS011;36250;48.740;22.174;2023-03-29T12:51:15;2.03;;;1.48;;
50350;SDS011;36250;48.740;22.174;2023-03-29T12:53:48;2.20;;;1.42;;
50350;SDS011;36250;48.740;22.174;2023-03-29T12:56:17;7.50;;;3.30;;
50350;SDS011;36250;48.740;22.174;2023-03-29T13:01:21;3.17;;;1.90;;
50350;SDS011;36250;48.740;22.174;2023-03-29T13:03:48;9.10;;;3.60;;
50350;SDS011;36250;48.740;22.174;2023-03-29T13:06:32;11.05;;;4.25;;
50350;SDS011;36250;48.740;22.174;2023-03-29T13:11:52;5.72;;;2.17;;
50350;SDS011;36250;48.740;22.174;2023-03-29T13:14:23;3.90;;;1.58;;
50350;SDS011;36250;48.740;22.174;2023-03-29T13:16:53;1.52;;;1.25;;
50350;SDS011;36250;48.740;22.174;2023-03-29T13:19:30;2.15;;;1.08;;
50350;SDS011;36250;48.740;22.174;2023-03-29T13:31:05;1.10;;;1.00;;
50350;SDS011;36250;48.740;22.174;2023-03-29T13:33:43;1.33;;;1.08;;
50350;SDS011;36250;48.740;22.174;2023-03-29T13:39:21;3.13;;;1.48;;
50350;SDS011;36250;48.740;22.174;2023-03-29T13:41:52;4.15;;;1.55;;
50350;SDS011;36250;48.740;22.174;2023-03-29T13:44:40;1.10;;;1.00;;
50350;SDS011;36250;48.740;22.174;2023-03-29T13:49:34;2.03;;;0.90;;
50350;SDS011;36250;48.740;22.174;2023-03-29T13:52:34;2.85;;;1.60;;
50350;SDS011;36250;48.740;22.174;2023-03-29T13:57:42;1.98;;;1.38;;
50350;SDS011;36250;48.740;22.174;2023-03-29T14:00:17;2.63;;;2.13;;
50350;SDS011;36250;48.740;22.174;2023-03-29T14:02:59;1.52;;;1.42;;
50350;SDS011;36250;48.740;22.174;2023-03-29T14:05:29;1.65;;;1.50;;
50350;SDS011;36250;48.740;22.174;2023-03-29T14:08:08;2.00;;;1.45;;
50350;SDS011;36250;48.740;22.174;2023-03-29T14:10:36;3.90;;;2.20;;
50350;SDS011;36250;48.740;22.174;2023-03-29T14:13:05;1.92;;;1.40;;
50350;SDS011;36250;48.740;22.174;2023-03-29T14:16:05;2.33;;;1.30;;
50350;SDS011;36250;48.740;22.174;2023-03-29T14:18:35;2.20;;;1.92;;
50350;SDS011;36250;48.740;22.174;2023-03-29T14:21:02;4.68;;;2.28;;
50350;SDS011;36250;48.740;22.174;2023-03-29T14:23:29;2.25;;;2.00;;
50350;SDS011;36250;48.740;22.174;2023-03-29T14:26:04;4.03;;;1.92;;
50350;SDS011;36250;48.740;22.174;2023-03-29T14:28:44;2.72;;;2.33;;
50350;SDS011;36250;48.740;22.174;2023-03-29T14:31:20;2.70;;;2.25;;
50350;SDS011;36250;48.740;22.174;2023-03-29T14:33:53;2.35;;;1.80;;
50350;SDS011;36250;48.740;22.174;2023-03-29T14:36:20;1.67;;;1.50;;
50350;SDS011;36250;48.740;22.174;2023-03-29T14:38:51;2.28;;;2.03;;
50350;SDS011;36250;48.740;22.174;2023-03-29T14:41:22;4.05;;;2.53;;
50350;SDS011;36250;48.740;22.174;2023-03-29T14:43:48;4.28;;;1.80;;
50350;SDS011;36250;48.740;22.174;2023-03-29T14:46:16;2.15;;;1.83;;
50350;SDS011;36250;48.740;22.174;2023-03-29T14:48:44;3.92;;;2.30;;
50350;SDS011;36250;48.740;22.174;2023-03-29T14:51:10;4.70;;;2.20;;
50350;SDS011;36250;48.740;22.174;2023-03-29T14:53:35;8.70;;;4.43;;
50350;SDS011;36250;48.740;22.174;2023-03-29T14:56:02;6.43;;;4.32;;
50350;SDS011;36250;48.740;22.174;2023-03-29T14:58:33;7.60;;;4.38;;
50350;SDS011;36250;48.740;22.174;2023-03-29T15:01:11;3.22;;;2.20;;
50350;SDS011;36250;48.740;22.174;2023-03-29T15:03:45;15.70;;;8.25;;
50350;SDS011;36250;48.740;22.174;2023-03-29T15:06:16;5.43;;;3.63;;
50350;SDS011;36250;48.740;22.174;2023-03-29T15:08:42;16.35;;;7.35;;
50350;SDS011;36250;48.740;22.174;2023-03-29T15:11:19;13.02;;;6.25;;
50350;SDS011;36250;48.740;22.174;2023-03-29T15:13:47;8.23;;;4.35;;
50350;SDS011;36250;48.740;22.174;2023-03-29T15:16:17;3.92;;;3.13;;
50350;SDS011;36250;48.740;22.174;2023-03-29T15:18:45;5.93;;;2.95;;
50350;SDS011;36250;48.740;22.174;2023-03-29T15:21:15;2.35;;;2.00;;
50350;SDS011;36250;48.740;22.174;2023-03-29T15:23:49;2.03;;;1.73;;
50350;SDS011;36250;48.740;22.174;2023-03-29T15:26:20;4.03;;;1.58;;
50350;SDS011;36250;48.740;22.174;2023-03-29T15:28:50;1.92;;;1.70;;
50350;SDS011;36250;48.740;22.174;2023-03-29T15:31:19;4.38;;;1.70;;
50350;SDS011;36250;48.740;22.174;2023-03-29T15:34:06;3.05;;;1.52;;
50350;SDS011;36250;48.740;22.174;2023-03-29T15:36:37;5.17;;;2.97;;
50350;SDS011;36250;48.740;22.174;2023-03-29T15:39:08;2.63;;;1.90;;
50350;SDS011;36250;48.740;22.174;2023-03-29T15:41:38;1.70;;;1.38;;
50350;SDS011;36250;48.740;22.174;2023-03-29T15:44:04;1.60;;;1.50;;
50350;SDS011;36250;48.740;22.174;2023-03-29T15:46:29;5.72;;;1.80;;
50350;SDS011;36250;48.740;22.174;2023-03-29T15:48:56;6.63;;;4.97;;
50350;SDS011;36250;48.740;22.174;2023-03-29T15:51:21;17.00;;;10.43;;
50350;SDS011;36250;48.740;22.174;2023-03-29T15:53:46;16.10;;;9.50;;
50350;SDS011;36250;48.740;22.174;2023-03-29T15:56:14;8.00;;;5.07;;
50350;SDS011;36250;48.740;22.174;2023-03-29T15:58:42;12.95;;;6.57;;
50350;SDS011;36250;48.740;22.174;2023-03-29T16:01:11;24.40;;;16.27;;
50350;SDS011;36250;48.740;22.174;2023-03-29T16:03:38;39.35;;;27.85;;
50350;SDS011;36250;48.740;22.174;2023-03-29T16:06:03;17.70;;;11.82;;
50350;SDS011;36250;48.740;22.174;2023-03-29T16:08:30;20.73;;;13.18;;
50350;SDS011;36250;48.740;22.174;2023-03-29T16:10:55;15.50;;;9.50;;
50350;SDS011;36250;48.740;22.174;2023-03-29T16:13:20;29.00;;;12.98;;
50350;SDS011;36250;48.740;22.174;2023-03-29T16:15:46;27.58;;;9.90;;
50350;SDS011;36250;48.740;22.174;2023-03-29T16:18:11;29.45;;;13.82;;
50350;SDS011;36250;48.740;22.174;2023-03-29T16:20:37;27.30;;;11.82;;
50350;SDS011;36250;48.740;22.174;2023-03-29T16:23:03;16.55;;;8.45;;
50350;SDS011;36250;48.740;22.174;2023-03-29T16:25:33;11.00;;;7.50;;
50350;SDS011;36250;48.740;22.174;2023-03-29T16:28:03;6.88;;;4.95;;
50350;SDS011;36250;48.740;22.174;2023-03-29T16:30:30;17.45;;;8.15;;
50350;SDS011;36250;48.740;22.174;2023-03-29T16:32:56;47.70;;;19.77;;
50350;SDS011;36250;48.740;22.174;2023-03-29T16:35:26;28.30;;;14.15;;
50350;SDS011;36250;48.740;22.174;2023-03-29T16:37:53;11.02;;;6.82;;
50350;SDS011;36250;48.740;22.174;2023-03-29T16:40:19;5.95;;;4.55;;